Terminal Aerodrome Forecast
Issued by NWS

Home | Current Version | Previous Version | Text Only | Print | Product List | Glossary On
Versions: 1 2 3 4 5 6 7 8 9 10 11 12 13 14 15 16
000
FTUS42 KMHX 272329
TAFOAJ
TAF
KOAJ 272329Z 2800/2824 19010KT P6SM BKN250
     FM280400 19010KT P6SM BKN110
     FM280700 19010KT P6SM SCT010 BKN020
     FM281100 20005KT P6SM FEW010 SCT020
     FM281300 21005KT P6SM SCT060
     FM281900 20010KT P6SM SCT250
      AMD LTD TO CLD VIS AND WIND=

USA.gov is the U.S. government's official web portal to all federal, state and local government web resources and services.